Time;durP1;ratioP1;P1;durP2;ratioP2;P2;SDS_P1;SDS_P2;PMS_P1;PMS_P2;Temp;Humidity;BMP_temperature;BMP_pressure;BME280_temperature;BME280_humidity;BME280_pressure;Samples;Min_cycle;Max_cycle;Signal;HPM_P1;HPM_P2
2023/08/01 00:00:19;;;;;;;4.38;2.70;;;;;;;16.83;100.00;95073.69;1020729;29;20023;-74
2023/08/01 00:00:50;;;;;;;3.88;2.25;;;;;;;16.76;100.00;95062.06;1018812;29;20036;-74
2023/08/01 00:01:20;;;;;;;7.55;2.80;;;;;;;16.75;100.00;95052.56;1019096;29;20058;-74
2023/08/01 00:01:51;;;;;;;10.00;3.28;;;;;;;16.79;100.00;95056.13;1015136;29;20076;-74
2023/08/01 00:02:21;;;;;;;4.82;2.63;;;;;;;16.82;100.00;95072.16;1018958;29;20027;-74
2023/08/01 00:02:52;;;;;;;3.60;2.65;;;;;;;16.82;100.00;95063.44;1015165;29;20597;-74
2023/08/01 00:03:22;;;;;;;4.70;2.75;;;;;;;16.78;100.00;95054.56;1022779;29;20082;-74
2023/08/01 00:03:53;;;;;;;5.13;3.00;;;;;;;16.85;100.00;95068.09;1022964;28;20036;-75
2023/08/01 00:04:23;;;;;;;4.57;2.75;;;;;;;16.76;100.00;95044.28;1018995;29;20023;-76
2023/08/01 00:04:53;;;;;;;7.18;2.92;;;;;;;16.76;100.00;95046.94;1013840;29;20083;-74
2023/08/01 00:05:24;;;;;;;5.63;2.85;;;;;;;16.87;100.00;95057.97;1010896;29;20092;-77
2023/08/01 00:05:55;;;;;;;4.65;2.80;;;;;;;16.87;100.00;95052.69;1011128;29;20119;-76
2023/08/01 00:06:25;;;;;;;3.50;2.40;;;;;;;16.87;100.00;95050.03;1011284;29;20478;-75
2023/08/01 00:06:55;;;;;;;10.20;3.45;;;;;;;16.88;100.00;95052.34;1010981;29;20029;-75
2023/08/01 00:07:27;;;;;;;7.13;2.95;;;;;;;16.85;100.00;95049.56;1012696;29;20036;-76
2023/08/01 00:07:57;;;;;;;5.75;2.85;;;;;;;16.83;100.00;95043.78;1018973;29;20410;-74
2023/08/01 00:08:28;;;;;;;6.97;2.35;;;;;;;16.93;100.00;95051.38;1013272;29;20024;-74
2023/08/01 00:08:58;;;;;;;4.10;2.63;;;;;;;16.93;100.00;95051.38;1015942;29;20036;-77
2023/08/01 00:09:29;;;;;;;4.25;2.55;;;;;;;16.88;100.00;95041.75;1020131;29;20033;-75
2023/08/01 00:09:59;;;;;;;5.65;2.70;;;;;;;16.93;100.00;95051.38;1022924;29;20432;-76
2023/08/01 00:10:29;;;;;;;6.15;3.17;;;;;;;16.89;100.00;95039.88;1018354;29;20367;-74
2023/08/01 00:11:00;;;;;;;5.85;2.88;;;;;;;16.95;100.00;95054.50;1019977;29;20036;-74
2023/08/01 00:11:30;;;;;;;3.58;2.45;;;;;;;16.97;100.00;95052.31;1018858;29;20127;-75
2023/08/01 00:12:01;;;;;;;2.90;2.30;;;;;;;16.96;100.00;95045.44;1023020;28;20070;-76
2023/08/01 00:12:31;;;;;;;6.28;2.78;;;;;;;17.00;100.00;95051.69;1018784;29;20038;-74
2023/08/01 00:13:02;;;;;;;3.75;2.75;;;;;;;16.99;100.00;95039.50;1018832;29;20044;-75
2023/08/01 00:13:32;;;;;;;5.20;2.42;;;;;;;17.00;100.00;95050.88;1022829;29;20661;-75
2023/08/01 00:14:03;;;;;;;4.88;2.40;;;;;;;17.01;100.00;95042.63;1022894;29;20110;-74
2023/08/01 00:14:33;;;;;;;7.85;2.70;;;;;;;17.02;100.00;95040.75;1022832;28;20039;-78
2023/08/01 00:15:04;;;;;;;6.22;2.80;;;;;;;17.01;100.00;95032.00;1018823;28;20036;-76
2023/08/01 00:15:35;;;;;;;9.27;3.33;;;;;;;16.98;100.00;95024.69;1015078;29;20028;-76
2023/08/01 00:16:05;;;;;;;6.53;2.70;;;;;;;16.98;100.00;95022.06;1020097;29;20059;-75
2023/08/01 00:16:36;;;;;;;3.92;2.35;;;;;;;17.01;100.00;95020.66;1015171;29;20034;-75
2023/08/01 00:17:06;;;;;;;3.45;2.20;;;;;;;17.05;100.00;95030.28;1015128;29;20513;-76
2023/08/01 00:17:37;;;;;;;6.05;2.33;;;;;;;17.07;100.00;95022.78;1014962;29;20032;-75
2023/08/01 00:18:07;;;;;;;4.72;2.83;;;;;;;17.09;100.00;95023.22;1018996;29;20032;-74
2023/08/01 00:18:38;;;;;;;4.97;2.60;;;;;;;17.11;100.00;95026.34;1023050;28;20028;-77
2023/08/01 00:19:08;;;;;;;6.38;2.53;;;;;;;17.07;100.00;95003.44;1022978;28;20035;-74
2023/08/01 00:19:39;;;;;;;5.80;3.38;;;;;;;17.15;100.00;95016.66;1021376;29;20074;-75
2023/08/01 00:20:09;;;;;;;2.90;2.58;;;;;;;17.17;100.00;95019.75;1021793;29;20031;-76
2023/08/01 00:20:41;;;;;;;5.57;2.55;;;;;;;16.90;100.00;94973.31;1018610;29;20067;-75
2023/08/01 00:21:11;;;;;;;6.35;2.45;;;;;;;17.14;100.00;95014.31;1023103;28;20023;-76
2023/08/01 00:21:42;;;;;;;6.68;2.40;;;;;;;17.14;100.00;95006.38;1026943;28;20030;-74
2023/08/01 00:22:12;;;;;;;5.05;2.38;;;;;;;17.22;100.00;95012.72;1023028;29;20039;-76
2023/08/01 00:22:43;;;;;;;5.82;2.58;;;;;;;17.13;100.00;94994.19;1023231;28;20521;-76
2023/08/01 00:23:13;;;;;;;4.82;2.40;;;;;;;17.22;100.00;95004.75;1019572;28;20058;-74
2023/08/01 00:23:44;;;;;;;6.28;2.45;;;;;;;17.19;100.00;94998.97;1027034;28;20412;-73
2023/08/01 00:24:14;;;;;;;5.80;2.38;;;;;;;17.18;100.00;94994.78;1027377;28;20094;-75
2023/08/01 00:24:47;;;;;;;5.75;3.22;;;;;;;17.24;100.00;95002.56;1024381;28;20050;-75
2023/08/01 00:25:17;;;;;;;4.28;2.40;;;;;;;17.22;100.00;94999.44;1022848;29;20705;-75
2023/08/01 00:25:51;;;;;;;5.07;2.30;;;;;;;17.25;100.00;95004.88;1022805;28;20031;-75
2023/08/01 00:26:21;;;;;;;16.20;3.72;;;;;;;17.26;100.00;95001.13;1022619;28;20817;-75
2023/08/01 00:26:55;;;;;;;4.80;2.30;;;;;;;17.17;100.00;94989.81;1022889;29;20027;-75
2023/08/01 00:27:25;;;;;;;4.78;2.25;;;;;;;17.16;100.00;94986.38;1019704;29;20055;-75
2023/08/01 00:27:56;;;;;;;3.53;2.50;;;;;;;17.28;100.00;95003.47;1019030;29;20028;-75
2023/08/01 00:28:26;;;;;;;3.15;2.25;;;;;;;17.27;100.00;95004.53;1022678;29;20042;-75
2023/08/01 00:28:57;;;;;;;5.18;2.33;;;;;;;17.27;100.00;94999.25;1019371;29;20031;-74
2023/08/01 00:29:27;;;;;;;5.07;2.35;;;;;;;17.23;100.00;94990.38;1018876;29;20039;-74
2023/08/01 00:29:58;;;;;;;5.95;2.28;;;;;;;17.18;100.00;94984.19;1022541;29;20071;-78
2023/08/01 00:30:28;;;;;;;3.67;2.10;;;;;;;17.22;100.00;94983.53;1022366;28;20031;-77
2023/08/01 00:31:05;;;;;;;4.63;2.50;;;;;;;17.30;100.00;95001.25;1014796;29;20036;-75
2023/08/01 00:31:36;;;;;;;3.58;2.00;;;;;;;17.31;100.00;94997.53;1017859;29;20016;-75
2023/08/01 00:32:06;;;;;;;2.88;2.40;;;;;;;17.31;100.00;94993.00;1022668;29;20031;-74
2023/08/01 00:32:37;;;;;;;4.63;2.35;;;;;;;17.04;100.00;94949.22;1018661;29;20676;-74
2023/08/01 00:33:07;;;;;;;9.50;2.58;;;;;;;17.28;100.00;94992.88;1018559;29;20043;-75
2023/08/01 00:33:38;;;;;;;6.50;2.58;;;;;;;17.27;100.00;94992.09;1015048;29;20024;-78
2023/08/01 00:34:08;;;;;;;3.22;2.33;;;;;;;17.18;100.00;94984.19;1015014;29;20036;-75
2023/08/01 00:34:39;;;;;;;7.07;2.30;;;;;;;17.26;100.00;94989.75;1018581;29;20032;-77
2023/08/01 00:35:09;;;;;;;3.47;2.45;;;;;;;17.26;100.00;94989.75;1026917;28;20030;-75
2023/08/01 00:35:40;;;;;;;5.40;2.30;;;;;;;17.19;100.00;94980.44;1025470;28;20038;-76
2023/08/01 00:36:11;;;;;;;4.38;2.40;;;;;;;17.24;100.00;94986.66;1018460;29;20047;-77
2023/08/01 00:36:41;;;;;;;4.30;2.78;;;;;;;17.25;100.00;94982.91;1018590;29;20019;-75
2023/08/01 00:37:12;;;;;;;4.68;2.25;;;;;;;17.19;100.00;94980.44;1018954;29;20040;-78
2023/08/01 00:37:42;;;;;;;4.43;2.17;;;;;;;17.17;100.00;94987.94;1018859;29;20038;-75
2023/08/01 00:38:13;;;;;;;3.03;2.20;;;;;;;17.15;100.00;94984.81;1019053;28;20035;-76
2023/08/01 00:38:43;;;;;;;6.10;2.10;;;;;;;17.14;100.00;94987.81;1022855;29;20374;-76
2023/08/01 00:39:14;;;;;;;6.35;2.47;;;;;;;17.07;100.00;94975.06;1019063;29;20048;-75
2023/08/01 00:39:44;;;;;;;4.35;2.60;;;;;;;17.10;100.00;94981.59;1014955;29;20043;-77
2023/08/01 00:40:16;;;;;;;4.05;2.45;;;;;;;17.07;100.00;94983.03;1022785;28;20620;-75
2023/08/01 00:40:46;;;;;;;7.13;2.72;;;;;;;16.97;100.00;94972.81;1018029;29;20043;-77
2023/08/01 00:41:17;;;;;;;6.53;2.83;;;;;;;17.03;100.00;94983.97;1015802;29;20874;-75
2023/08/01 00:41:47;;;;;;;7.28;2.75;;;;;;;16.95;100.00;94981.06;1014839;29;20096;-77
2023/08/01 00:42:18;;;;;;;5.70;2.60;;;;;;;17.01;100.00;94983.53;1014648;29;20036;-75
2023/08/01 00:42:48;;;;;;;3.38;2.63;;;;;;;16.93;100.00;94974.53;1018967;29;20044;-74
2023/08/01 00:43:19;;;;;;;9.02;3.92;;;;;;;16.96;100.00;94984.47;1018687;29;20043;-74
2023/08/01 00:43:49;;;;;;;3.88;2.33;;;;;;;16.87;100.00;94965.22;1019068;28;20066;-74
2023/08/01 00:44:20;;;;;;;3.38;2.45;;;;;;;16.77;100.00;94955.78;1018683;29;20556;-74
2023/08/01 00:44:51;;;;;;;3.38;2.33;;;;;;;16.92;100.00;94979.03;1018763;29;20032;-74
2023/08/01 00:45:21;;;;;;;4.53;2.13;;;;;;;16.91;100.00;94982.03;1022762;29;20049;-74
2023/08/01 00:45:52;;;;;;;6.45;2.30;;;;;;;16.84;100.00;94968.50;1019002;29;20047;-74
2023/08/01 00:46:22;;;;;;;4.95;2.50;;;;;;;16.84;100.00;94971.16;1018977;29;20589;-74
2023/08/01 00:46:52;;;;;;;6.35;2.38;;;;;;;16.84;100.00;94968.50;1022660;29;20050;-76
2023/08/01 00:47:23;;;;;;;4.18;2.42;;;;;;;16.86;100.00;94979.56;1022813;29;20027;-75
2023/08/01 00:47:54;;;;;;;5.50;2.60;;;;;;;16.83;100.00;94972.25;1014910;29;20024;-77
2023/08/01 00:48:24;;;;;;;5.57;2.72;;;;;;;16.87;100.00;94975.81;1014702;29;20664;-76
2023/08/01 00:48:57;;;;;;;4.45;2.35;;;;;;;16.87;100.00;94978.47;1011142;29;20037;-75
2023/08/01 00:49:28;;;;;;;2.25;1.88;;;;;;;16.74;100.00;94959.03;1015837;29;20036;-77
2023/08/01 00:49:58;;;;;;;11.35;3.13;;;;;;;16.79;100.00;94973.97;1019334;28;20603;-75
2023/08/01 00:50:29;;;;;;;3.38;2.33;;;;;;;16.74;100.00;94964.31;1014394;29;20028;-74
2023/08/01 00:51:01;;;;;;;4.88;2.45;;;;;;;16.76;100.00;94966.69;1018577;29;20035;-75
2023/08/01 00:51:31;;;;;;;3.55;1.95;;;;;;;16.76;100.00;94971.97;1026892;28;20053;-76
2023/08/01 00:52:02;;;;;;;4.38;2.30;;;;;;;16.43;100.00;94927.53;1018708;29;20082;-74
2023/08/01 00:52:32;;;;;;;4.00;2.30;;;;;;;16.79;100.00;94976.63;1014787;29;20036;-77
2023/08/01 00:53:03;;;;;;;4.18;2.63;;;;;;;16.63;100.00;94952.53;1014762;29;20028;-74
2023/08/01 00:53:33;;;;;;;6.65;3.00;;;;;;;16.72;100.00;94966.50;1018662;29;20027;-74
2023/08/01 00:54:04;;;;;;;7.20;2.78;;;;;;;16.69;100.00;94965.28;1014764;29;20363;-75
2023/08/01 00:54:36;;;;;;;3.30;2.60;;;;;;;16.71;100.00;94968.38;1014869;29;20502;-76
2023/08/01 00:55:07;;;;;;;4.10;2.53;;;;;;;16.74;100.00;94972.28;1017889;29;20035;-75
2023/08/01 00:55:38;;;;;;;7.03;2.78;;;;;;;16.67;100.00;94966.72;1019386;29;20320;-76
2023/08/01 00:56:08;;;;;;;6.05;2.53;;;;;;;16.76;100.00;94971.97;1014932;29;20024;-75
2023/08/01 00:56:38;;;;;;;4.18;2.50;;;;;;;16.75;100.00;94970.44;1014867;29;20095;-75
2023/08/01 00:57:09;;;;;;;4.43;2.67;;;;;;;16.65;100.00;94953.78;1014737;29;20764;-73
2023/08/01 00:57:40;;;;;;;5.03;2.40;;;;;;;16.77;100.00;94966.38;1018930;29;20039;-74
2023/08/01 00:58:10;;;;;;;6.30;2.30;;;;;;;16.83;100.00;94969.59;1015001;29;20107;-76
2023/08/01 00:58:41;;;;;;;4.03;2.30;;;;;;;16.84;100.00;94971.16;1014840;29;20069;-77
2023/08/01 00:59:12;;;;;;;3.83;2.38;;;;;;;16.85;100.00;94964.75;1011051;29;20029;-73
2023/08/01 00:59:42;;;;;;;2.72;2.40;;;;;;;16.79;100.00;94950.91;1011353;29;20028;-75
2023/08/01 01:00:13;;;;;;;4.90;1.98;;;;;;;16.89;100.00;94965.66;1011537;29;20052;-75
2023/08/01 01:00:43;;;;;;;5.53;2.78;;;;;;;16.89;100.00;94965.66;1014434;29;20032;-74
2023/08/01 01:01:14;;;;;;;7.43;2.35;;;;;;;16.87;100.00;94954.63;1014865;29;20035;-75
2023/08/01 01:01:44;;;;;;;4.90;2.20;;;;;;;16.77;100.00;94941.72;1018996;28;20024;-76
2023/08/01 01:02:15;;;;;;;3.92;2.67;;;;;;;16.93;100.00;94961.28;1025954;28;20027;-74
2023/08/01 01:02:45;;;;;;;6.03;2.38;;;;;;;16.90;100.00;94954.75;1026697;28;20579;-76
2023/08/01 01:03:16;;;;;;;6.13;2.67;;;;;;;16.85;100.00;94951.50;1022508;29;20035;-75
2023/08/01 01:03:46;;;;;;;2.47;2.15;;;;;;;16.90;100.00;94956.59;1018550;28;20042;-76
2023/08/01 01:04:17;;;;;;;5.57;2.63;;;;;;;16.83;100.00;94940.44;1018689;29;20063;-75
2023/08/01 01:04:47;;;;;;;3.95;2.40;;;;;;;16.89;100.00;94955.84;1018776;29;20215;-76
2023/08/01 01:05:18;;;;;;;5.90;2.65;;;;;;;16.95;100.00;94959.09;1018463;29;20050;-75
2023/08/01 01:06:08;;;;;;;4.15;2.30;;;;;;;17.01;100.00;94967.63;1014810;29;20416;-76
2023/08/01 01:06:47;;;;;;;5.00;2.00;;;;;;;17.00;100.00;94964.22;1010899;29;20037;-73
2023/08/01 01:07:18;;;;;;;3.55;2.60;;;;;;;16.93;100.00;94953.31;1022304;29;20041;-77
2023/08/01 01:07:49;;;;;;;3.65;2.30;;;;;;;17.01;100.00;94964.97;1022736;28;20073;-77
2023/08/01 01:08:20;;;;;;;3.88;2.17;;;;;;;17.00;100.00;94974.81;1014747;29;20032;-77
2023/08/01 01:08:50;;;;;;;4.20;2.50;;;;;;;16.98;100.00;94958.44;1014922;29;20601;-77
2023/08/01 01:09:21;;;;;;;4.32;2.05;;;;;;;17.05;100.00;94965.88;1022507;29;20042;-74
2023/08/01 01:09:51;;;;;;;5.45;1.95;;;;;;;17.03;100.00;94968.84;1023076;28;20094;-76
2023/08/01 01:10:22;;;;;;;5.28;2.75;;;;;;;17.02;100.00;94964.66;1018077;28;20036;-76
2023/08/01 01:10:52;;;;;;;6.15;2.30;;;;;;;16.97;100.00;94956.91;1014118;29;20032;-73
2023/08/01 01:11:23;;;;;;;4.85;2.30;;;;;;;16.99;100.00;94970.59;1010761;29;20040;-75
2023/08/01 01:11:53;;;;;;;4.00;2.20;;;;;;;16.93;100.00;94966.56;1010979;29;20079;-74
2023/08/01 01:12:24;;;;;;;4.97;2.35;;;;;;;16.97;100.00;94962.19;1014734;29;20033;-76
2023/08/01 01:12:55;;;;;;;3.38;2.15;;;;;;;17.01;100.00;94972.94;1021585;28;20105;-75
2023/08/01 01:13:25;;;;;;;2.08;1.70;;;;;;;17.01;100.00;94971.06;1018462;29;20036;-75
2023/08/01 01:13:56;;;;;;;3.60;2.08;;;;;;;16.91;100.00;94955.53;1014720;29;20028;-76
2023/08/01 01:14:27;;;;;;;3.08;2.15;;;;;;;16.93;100.00;94966.56;1016439;29;20443;-76
2023/08/01 01:14:57;;;;;;;2.92;2.30;;;;;;;16.96;100.00;94979.94;1014809;29;20024;-76
2023/08/01 01:15:27;;;;;;;4.03;2.20;;;;;;;16.93;100.00;94966.56;1018834;29;20024;-76
2023/08/01 01:15:58;;;;;;;3.53;2.13;;;;;;;16.94;100.00;94965.50;1018470;29;20522;-78
2023/08/01 01:16:28;;;;;;;4.25;2.70;;;;;;;16.90;100.00;94962.72;1018945;29;20031;-77
2023/08/01 01:16:59;;;;;;;6.43;2.30;;;;;;;16.94;100.00;94973.44;1014694;29;20036;-74
2023/08/01 01:17:30;;;;;;;4.38;2.60;;;;;;;16.94;100.00;94973.44;1026641;28;20027;-75
2023/08/01 01:18:00;;;;;;;4.35;2.65;;;;;;;16.88;100.00;94969.41;1023335;28;20027;-76
2023/08/01 01:18:31;;;;;;;2.17;1.92;;;;;;;16.87;100.00;94959.94;1018879;29;20020;-75
2023/08/01 01:19:02;;;;;;;4.95;2.67;;;;;;;16.85;100.00;94964.75;1014829;29;20028;-78
2023/08/01 01:19:33;;;;;;;8.23;2.78;;;;;;;16.81;100.00;94963.84;1014804;29;20035;-76
2023/08/01 01:20:03;;;;;;;4.72;2.78;;;;;;;16.83;100.00;94962.41;1014787;29;20592;-77
2023/08/01 01:20:35;;;;;;;4.85;2.50;;;;;;;16.62;100.00;94941.16;1010581;29;20135;-77
2023/08/01 01:21:05;;;;;;;5.35;2.55;;;;;;;16.76;100.00;94964.03;1019090;29;20035;-77
2023/08/01 01:21:38;;;;;;;8.95;3.03;;;;;;;16.78;100.00;94973.22;1022797;29;20031;-75
2023/08/01 01:22:09;;;;;;;6.05;2.70;;;;;;;16.77;100.00;94973.50;1023245;28;20413;-77
2023/08/01 01:22:39;;;;;;;5.60;3.03;;;;;;;16.74;100.00;94969.63;1014761;29;20054;-75
2023/08/01 01:23:10;;;;;;;4.03;2.85;;;;;;;16.73;100.00;94974.16;1023125;28;20031;-75
2023/08/01 01:23:40;;;;;;;7.30;3.17;;;;;;;16.67;100.00;94967.47;1026511;28;20027;-75
2023/08/01 01:24:11;;;;;;;5.63;3.08;;;;;;;16.64;100.00;94964.69;1018712;29;20054;-76
2023/08/01 01:24:42;;;;;;;5.43;2.78;;;;;;;16.65;100.00;94961.72;1016799;29;20051;-78
2023/08/01 01:25:12;;;;;;;4.32;2.60;;;;;;;16.64;100.00;94965.47;1026778;28;20030;-78
2023/08/01 01:25:43;;;;;;;5.70;2.60;;;;;;;16.66;100.00;94968.56;1014749;29;20832;-77
2023/08/01 01:26:16;;;;;;;4.72;2.65;;;;;;;16.57;100.00;94969.72;1019290;29;20027;-75
2023/08/01 01:26:47;;;;;;;6.75;3.00;;;;;;;16.46;100.00;94946.25;1022555;28;20397;-77
2023/08/01 01:27:18;;;;;;;5.75;3.20;;;;;;;16.60;100.00;94966.41;1026685;28;20022;-77
2023/08/01 01:27:49;;;;;;;4.45;2.42;;;;;;;16.48;100.00;94946.69;1022695;29;20620;-77
2023/08/01 01:28:19;;;;;;;2.33;2.13;;;;;;;16.56;100.00;94968.16;1026287;28;20054;-75
2023/08/01 01:28:50;;;;;;;4.32;2.67;;;;;;;16.43;100.00;94951.38;1026793;28;20026;-75
2023/08/01 01:29:21;;;;;;;5.90;3.15;;;;;;;16.53;100.00;94969.56;1022581;29;20030;-76
2023/08/01 01:29:51;;;;;;;5.15;2.58;;;;;;;16.50;100.00;94962.28;1022514;28;20614;-76
2023/08/01 01:30:22;;;;;;;9.70;2.92;;;;;;;16.50;100.00;94962.28;1025919;28;20072;-75
2023/08/01 01:30:53;;;;;;;5.43;2.58;;;;;;;16.43;100.00;94948.72;1018825;29;20054;-74
2023/08/01 01:31:23;;;;;;;5.75;2.75;;;;;;;16.41;100.00;94954.34;1018450;29;20032;-77
2023/08/01 01:31:54;;;;;;;6.38;2.53;;;;;;;16.42;100.00;94953.25;1018871;29;20027;-75
2023/08/01 01:32:24;;;;;;;5.05;2.83;;;;;;;16.43;100.00;94960.13;1018300;29;20066;-76
2023/08/01 01:32:55;;;;;;;6.97;2.72;;;;;;;16.40;100.00;94952.81;1018742;29;20516;-76
2023/08/01 01:33:25;;;;;;;3.88;2.90;;;;;;;16.35;100.00;94945.03;1018274;29;20004;-74
2023/08/01 01:33:56;;;;;;;4.00;2.67;;;;;;;16.34;100.00;94940.84;1018711;29;20027;-75
2023/08/01 01:34:29;;;;;;;3.53;2.33;;;;;;;16.31;100.00;94936.19;1014391;29;20024;-76
2023/08/01 01:35:01;;;;;;;8.07;2.65;;;;;;;16.33;100.00;94934.00;1015078;29;20091;-76
2023/08/01 01:35:35;;;;;;;5.95;2.63;;;;;;;16.38;100.00;94949.69;1014657;29;20079;-74
2023/08/01 01:36:06;;;;;;;4.20;2.47;;;;;;;16.31;100.00;94938.06;1013862;29;20647;-77
2023/08/01 01:36:36;;;;;;;3.47;2.30;;;;;;;16.34;100.00;94943.50;1010692;29;20024;-77
2023/08/01 01:37:06;;;;;;;4.43;2.60;;;;;;;16.37;100.00;94947.38;1014678;29;20058;-77
2023/08/01 01:37:37;;;;;;;3.10;2.47;;;;;;;16.29;100.00;94935.72;1015104;29;20027;-75
2023/08/01 01:38:08;;;;;;;3.72;2.53;;;;;;;16.29;100.00;94932.28;1018405;29;20024;-75
2023/08/01 01:38:38;;;;;;;5.70;2.53;;;;;;;16.20;100.00;94925.19;1014659;29;20604;-75
2023/08/01 01:39:08;;;;;;;5.47;2.35;;;;;;;16.35;100.00;94949.56;1018736;29;20056;-77
2023/08/01 01:39:39;;;;;;;4.43;2.45;;;;;;;16.35;100.00;94952.19;1010763;29;20028;-75
2023/08/01 01:40:10;;;;;;;5.88;2.83;;;;;;;16.11;100.00;94905.91;1022324;28;20026;-76
2023/08/01 01:40:40;;;;;;;4.18;2.85;;;;;;;16.27;100.00;94932.63;1021920;29;20708;-74
2023/08/01 01:41:11;;;;;;;4.40;2.40;;;;;;;16.32;100.00;94948.31;1018560;28;20028;-77
2023/08/01 01:41:41;;;;;;;5.82;2.75;;;;;;;16.25;100.00;94932.16;1018663;29;20137;-76
2023/08/01 01:42:13;;;;;;;8.75;2.60;;;;;;;16.22;100.00;94924.84;1022386;28;20034;-76
2023/08/01 01:42:44;;;;;;;3.28;2.33;;;;;;;16.25;100.00;94922.34;1018314;29;20019;-75
2023/08/01 01:43:14;;;;;;;5.95;2.70;;;;;;;16.35;100.00;94942.38;1019336;29;20063;-76
2023/08/01 01:43:45;;;;;;;3.30;2.65;;;;;;;16.36;100.00;94937.88;1019409;29;20051;-75
2023/08/01 01:44:15;;;;;;;5.15;2.63;;;;;;;16.31;100.00;94930.13;1021921;29;20035;-76
2023/08/01 01:44:45;;;;;;;3.72;2.63;;;;;;;16.37;100.00;94934.13;1020809;29;20023;-75
2023/08/01 01:45:16;;;;;;;2.60;2.08;;;;;;;16.31;100.00;94930.88;1023026;28;20030;-77
2023/08/01 01:45:46;;;;;;;5.75;2.67;;;;;;;16.32;100.00;94921.06;1030569;28;20471;-75
2023/08/01 01:46:17;;;;;;;4.65;2.60;;;;;;;16.38;100.00;94927.75;1025629;28;20018;-75
2023/08/01 01:46:49;;;;;;;5.07;2.83;;;;;;;16.37;100.00;94921.69;1018348;29;20023;-75
2023/08/01 01:47:19;;;;;;;4.93;2.78;;;;;;;16.33;100.00;94909.38;1018444;29;20015;-74
2023/08/01 01:47:50;;;;;;;7.22;2.22;;;;;;;16.40;100.00;94918.38;1026727;28;20018;-75
2023/08/01 01:48:20;;;;;;;4.18;2.42;;;;;;;16.44;100.00;94921.19;1011557;29;20025;-76
2023/08/01 01:48:51;;;;;;;4.07;2.53;;;;;;;16.47;100.00;94923.19;1018703;29;20056;-75
2023/08/01 01:49:21;;;;;;;4.20;2.30;;;;;;;16.44;100.00;94914.00;1018701;29;20083;-76
2023/08/01 01:49:52;;;;;;;2.72;2.28;;;;;;;16.42;100.00;94899.53;1022830;28;20031;-77
2023/08/01 01:50:22;;;;;;;4.30;2.42;;;;;;;16.56;100.00;94908.00;1018180;29;20094;-77
2023/08/01 01:50:52;;;;;;;2.55;2.17;;;;;;;16.52;100.00;94903.69;1026309;28;20146;-75
2023/08/01 01:51:27;;;;;;;2.95;2.50;;;;;;;16.54;100.00;94896.97;1022574;29;20038;-75
2023/08/01 01:51:57;;;;;;;5.55;2.63;;;;;;;16.63;100.00;94902.19;1021142;29;20042;-74
2023/08/01 01:52:28;;;;;;;2.92;2.15;;;;;;;16.69;100.00;94898.28;1022594;29;20022;-74
2023/08/01 01:52:58;;;;;;;5.32;2.78;;;;;;;16.65;100.00;94887.53;1019256;28;20078;-77
2023/08/01 01:53:29;;;;;;;4.85;2.35;;;;;;;16.71;100.00;94896.84;1020108;28;20043;-75
2023/08/01 01:53:59;;;;;;;5.40;2.53;;;;;;;16.73;100.00;94899.16;1022719;29;20023;-75
2023/08/01 01:54:30;;;;;;;5.30;2.83;;;;;;;16.73;100.00;94889.38;1018826;29;20024;-74
2023/08/01 01:55:00;;;;;;;6.40;2.75;;;;;;;16.76;100.00;94893.25;1022671;28;20425;-76
2023/08/01 01:55:31;;;;;;;4.38;2.33;;;;;;;16.77;100.00;94894.03;1018671;29;20031;-74
2023/08/01 01:56:01;;;;;;;3.15;2.15;;;;;;;16.77;100.00;94888.75;1022493;29;20078;-77
2023/08/01 01:56:32;;;;;;;3.22;2.40;;;;;;;16.79;100.00;94883.91;1018673;29;20583;-77
2023/08/01 01:57:03;;;;;;;7.20;2.53;;;;;;;16.85;100.00;94894.00;1017066;29;20032;-78
2023/08/01 01:57:36;;;;;;;5.50;2.58;;;;;;;16.88;100.00;94889.91;1018568;29;20035;-75
2023/08/01 01:58:06;;;;;;;3.45;2.50;;;;;;;16.82;100.00;94885.91;1022665;29;20118;-77
2023/08/01 01:58:37;;;;;;;4.38;2.17;;;;;;;16.81;100.00;94877.19;1022521;29;20023;-74
2023/08/01 01:59:07;;;;;;;4.57;2.45;;;;;;;16.87;100.00;94891.81;1011223;29;20021;-76
2023/08/01 01:59:37;;;;;;;4.03;2.28;;;;;;;16.83;100.00;94882.16;1014988;29;20032;-76
2023/08/01 02:00:11;;;;;;;4.20;2.70;;;;;;;16.85;100.00;94879.97;1018748;29;20042;-78
2023/08/01 02:00:41;;;;;;;2.80;2.08;;;;;;;16.84;100.00;94875.78;1022001;28;20027;-75
2023/08/01 02:01:12;;;;;;;3.72;2.70;;;;;;;16.80;100.00;94866.91;1014591;28;20024;-76
2023/08/01 02:01:42;;;;;;;5.88;2.55;;;;;;;16.90;100.00;94882.41;1014380;29;20029;-75
2023/08/01 02:02:14;;;;;;;6.03;2.65;;;;;;;16.89;100.00;94867.63;1011679;29;20064;-74
2023/08/01 02:02:44;;;;;;;2.45;2.10;;;;;;;16.89;100.00;94870.25;1014120;29;20063;-75
2023/08/01 02:03:15;;;;;;;2.30;2.10;;;;;;;16.91;100.00;94868.06;1018443;28;20040;-76
2023/08/01 02:03:45;;;;;;;2.35;2.10;;;;;;;16.90;100.00;94856.72;1022582;28;20058;-76
2023/08/01 02:04:16;;;;;;;3.70;2.63;;;;;;;17.00;100.00;94875.94;1014937;29;20032;-75
2023/08/01 02:04:47;;;;;;;6.40;2.50;;;;;;;17.03;100.00;94872.66;1014762;29;20055;-75
2023/08/01 02:05:17;;;;;;;4.32;2.97;;;;;;;17.02;100.00;94877.19;1014723;29;20028;-77
2023/08/01 02:05:48;;;;;;;6.75;2.55;;;;;;;17.04;100.00;94876.88;1019051;28;20023;-75
2023/08/01 02:06:18;;;;;;;3.17;2.13;;;;;;;16.98;100.00;94867.56;1022582;29;20038;-76
2023/08/01 02:06:49;;;;;;;2.55;2.08;;;;;;;17.06;100.00;94875.44;1014827;29;20522;-74
2023/08/01 02:07:19;;;;;;;4.93;2.78;;;;;;;17.02;100.00;94871.09;1013618;29;20024;-74
2023/08/01 02:07:50;;;;;;;4.65;2.60;;;;;;;17.01;100.00;94857.09;1017714;29;20036;-77
2023/08/01 02:08:20;;;;;;;3.92;2.58;;;;;;;17.09;100.00;94866.06;1021384;29;20401;-75
2023/08/01 02:08:51;;;;;;;4.30;2.55;;;;;;;17.00;100.00;94849.44;1022455;29;20035;-75
2023/08/01 02:09:21;;;;;;;3.85;2.42;;;;;;;17.09;100.00;94863.41;1022362;28;20039;-75
2023/08/01 02:09:51;;;;;;;5.82;2.47;;;;;;;17.14;100.00;94866.63;1018503;29;20023;-76
2023/08/01 02:10:22;;;;;;;4.47;3.05;;;;;;;17.15;100.00;94860.22;1013974;29;20032;-77
2023/08/01 02:10:53;;;;;;;2.90;2.55;;;;;;;17.17;100.00;94860.69;1018451;29;20031;-75
2023/08/01 02:11:23;;;;;;;5.18;2.50;;;;;;;17.12;100.00;94852.16;1018577;29;20054;-74
2023/08/01 02:11:53;;;;;;;4.30;1.90;;;;;;;17.15;100.00;94854.16;1022565;29;20069;-75
2023/08/01 02:12:24;;;;;;;5.35;2.58;;;;;;;17.20;100.00;94854.75;1014524;29;20083;-77
2023/08/01 02:12:54;;;;;;;4.05;2.83;;;;;;;17.20;100.00;94860.03;1010647;29;20031;-78
2023/08/01 02:13:28;;;;;;;4.10;2.50;;;;;;;17.15;100.00;94841.66;1010638;29;20029;-75
2023/08/01 02:13:59;;;;;;;3.42;2.42;;;;;;;17.26;100.00;94860.59;1015925;28;20036;-74
2023/08/01 02:14:29;;;;;;;3.75;2.25;;;;;;;17.18;100.00;94848.97;1022862;28;20038;-76
2023/08/01 02:15:00;;;;;;;6.20;2.50;;;;;;;17.30;100.00;94860.72;1022437;29;20028;-76
2023/08/01 02:15:30;;;;;;;5.18;2.30;;;;;;;17.32;100.00;94858.53;1022636;28;20023;-75
2023/08/01 02:16:01;;;;;;;3.97;2.40;;;;;;;17.27;100.00;94848.91;1018317;29;20032;-75
2023/08/01 02:16:31;;;;;;;3.88;2.72;;;;;;;17.33;100.00;94852.88;1010761;29;20029;-76
2023/08/01 02:17:02;;;;;;;2.75;2.30;;;;;;;17.33;100.00;94854.75;1014557;29;20024;-74
2023/08/01 02:17:32;;;;;;;8.68;2.53;;;;;;;17.34;100.00;94848.38;1018550;29;20035;-76
2023/08/01 02:18:03;;;;;;;4.75;2.38;;;;;;;17.28;100.00;94844.38;1021728;28;20121;-76
2023/08/01 02:18:33;;;;;;;3.88;2.60;;;;;;;17.29;100.00;94848.56;1018405;29;20027;-79
2023/08/01 02:19:03;;;;;;;3.88;2.35;;;;;;;17.35;100.00;94844.59;1014577;29;20032;-77
2023/08/01 02:19:34;;;;;;;6.80;2.40;;;;;;;17.36;100.00;94846.16;1010511;29;20391;-74
2023/08/01 02:20:05;;;;;;;3.33;2.20;;;;;;;17.37;100.00;94850.34;1010842;29;20044;-75
2023/08/01 02:20:35;;;;;;;6.72;2.67;;;;;;;17.28;100.00;94833.75;1014091;29;20039;-77
2023/08/01 02:21:06;;;;;;;4.25;2.50;;;;;;;17.32;100.00;94842.59;1018988;28;20027;-75
2023/08/01 02:21:36;;;;;;;3.22;2.30;;;;;;;17.39;100.00;94848.16;1022684;28;20035;-75
2023/08/01 02:22:07;;;;;;;5.32;2.95;;;;;;;17.38;100.00;94849.25;1027067;28;20504;-75
2023/08/01 02:22:37;;;;;;;4.30;2.70;;;;;;;17.37;100.00;94837.88;1021472;29;20612;-75
2023/08/01 02:23:08;;;;;;;5.65;2.28;;;;;;;17.32;100.00;94826.69;1006546;29;20025;-74